sensor_id;sensor_type;location;lat;lon;timestamp;P1;durP1;ratioP1;P2;durP2;ratioP2
17251;SDS011;8742;51.716;8.790;2023-07-22T00:00:37;22.63;;;10.30;;
17251;SDS011;8742;51.716;8.790;2023-07-22T00:03:03;17.97;;;10.63;;
17251;SDS011;8742;51.716;8.790;2023-07-22T00:05:30;18.30;;;11.17;;
17251;SDS011;8742;51.716;8.790;2023-07-22T00:07:57;16.77;;;9.13;;
17251;SDS011;8742;51.716;8.790;2023-07-22T00:10:24;19.83;;;10.77;;
17251;SDS011;8742;51.716;8.790;2023-07-22T00:12:52;19.43;;;10.73;;
17251;SDS011;8742;51.716;8.790;2023-07-22T00:15:19;18.50;;;10.23;;
17251;SDS011;8742;51.716;8.790;2023-07-22T00:17:49;22.63;;;10.87;;
17251;SDS011;8742;51.716;8.790;2023-07-22T00:20:16;21.70;;;10.50;;
17251;SDS011;8742;51.716;8.790;2023-07-22T00:22:45;22.83;;;11.03;;
17251;SDS011;8742;51.716;8.790;2023-07-22T00:25:12;20.77;;;11.60;;
17251;SDS011;8742;51.716;8.790;2023-07-22T00:27:39;19.23;;;10.77;;
17251;SDS011;8742;51.716;8.790;2023-07-22T00:30:08;20.67;;;11.67;;
17251;SDS011;8742;51.716;8.790;2023-07-22T00:32:36;24.90;;;10.93;;
17251;SDS011;8742;51.716;8.790;2023-07-22T00:35:03;22.77;;;11.43;;
17251;SDS011;8742;51.716;8.790;2023-07-22T00:37:30;25.07;;;10.77;;
17251;SDS011;8742;51.716;8.790;2023-07-22T00:39:57;24.60;;;11.37;;
17251;SDS011;8742;51.716;8.790;2023-07-22T00:42:24;17.30;;;10.43;;
17251;SDS011;8742;51.716;8.790;2023-07-22T00:44:51;23.47;;;10.63;;
17251;SDS011;8742;51.716;8.790;2023-07-22T00:47:19;17.63;;;10.87;;
17251;SDS011;8742;51.716;8.790;2023-07-22T00:49:47;19.00;;;10.37;;
17251;SDS011;8742;51.716;8.790;2023-07-22T00:52:15;21.53;;;10.63;;
17251;SDS011;8742;51.716;8.790;2023-07-22T00:54:42;17.80;;;10.13;;
17251;SDS011;8742;51.716;8.790;2023-07-22T00:57:10;18.37;;;10.03;;
17251;SDS011;8742;51.716;8.790;2023-07-22T00:59:38;16.00;;;9.77;;
17251;SDS011;8742;51.716;8.790;2023-07-22T01:02:05;15.67;;;9.83;;
17251;SDS011;8742;51.716;8.790;2023-07-22T01:04:34;20.13;;;10.13;;
17251;SDS011;8742;51.716;8.790;2023-07-22T01:07:01;14.77;;;9.50;;
17251;SDS011;8742;51.716;8.790;2023-07-22T01:09:34;17.67;;;10.10;;
17251;SDS011;8742;51.716;8.790;2023-07-22T01:12:02;18.77;;;10.17;;
17251;SDS011;8742;51.716;8.790;2023-07-22T01:14:30;20.57;;;9.30;;
17251;SDS011;8742;51.716;8.790;2023-07-22T01:16:58;19.23;;;10.47;;
17251;SDS011;8742;51.716;8.790;2023-07-22T01:19:26;17.37;;;9.80;;
17251;SDS011;8742;51.716;8.790;2023-07-22T01:21:55;22.37;;;9.37;;
17251;SDS011;8742;51.716;8.790;2023-07-22T01:24:24;20.00;;;9.40;;
17251;SDS011;8742;51.716;8.790;2023-07-22T01:26:51;14.97;;;8.60;;
17251;SDS011;8742;51.716;8.790;2023-07-22T01:29:18;18.50;;;9.40;;
17251;SDS011;8742;51.716;8.790;2023-07-22T01:31:46;16.50;;;10.07;;
17251;SDS011;8742;51.716;8.790;2023-07-22T01:34:14;15.37;;;9.43;;
17251;SDS011;8742;51.716;8.790;2023-07-22T01:36:42;14.57;;;8.77;;
17251;SDS011;8742;51.716;8.790;2023-07-22T01:39:09;18.27;;;9.33;;
17251;SDS011;8742;51.716;8.790;2023-07-22T01:41:38;20.10;;;9.70;;
17251;SDS011;8742;51.716;8.790;2023-07-22T01:44:05;15.80;;;9.00;;
17251;SDS011;8742;51.716;8.790;2023-07-22T01:46:33;20.87;;;8.93;;
17251;SDS011;8742;51.716;8.790;2023-07-22T01:49:00;18.40;;;8.77;;
17251;SDS011;8742;51.716;8.790;2023-07-22T01:51:28;21.50;;;8.70;;
17251;SDS011;8742;51.716;8.790;2023-07-22T01:53:55;15.97;;;9.20;;
17251;SDS011;8742;51.716;8.790;2023-07-22T01:56:22;16.27;;;8.90;;
17251;SDS011;8742;51.716;8.790;2023-07-22T01:58:50;14.13;;;8.53;;
17251;SDS011;8742;51.716;8.790;2023-07-22T02:01:17;15.30;;;9.07;;
17251;SDS011;8742;51.716;8.790;2023-07-22T02:03:44;14.23;;;8.63;;
17251;SDS011;8742;51.716;8.790;2023-07-22T02:06:13;14.80;;;9.27;;
17251;SDS011;8742;51.716;8.790;2023-07-22T02:08:40;14.37;;;8.80;;
17251;SDS011;8742;51.716;8.790;2023-07-22T02:11:07;16.97;;;9.57;;
17251;SDS011;8742;51.716;8.790;2023-07-22T02:13:35;12.70;;;8.00;;
17251;SDS011;8742;51.716;8.790;2023-07-22T02:16:03;18.43;;;9.97;;
17251;SDS011;8742;51.716;8.790;2023-07-22T02:18:30;15.70;;;8.57;;
17251;SDS011;8742;51.716;8.790;2023-07-22T02:20:58;13.07;;;8.40;;
17251;SDS011;8742;51.716;8.790;2023-07-22T02:23:24;18.33;;;9.57;;
17251;SDS011;8742;51.716;8.790;2023-07-22T02:25:51;16.60;;;9.40;;
17251;SDS011;8742;51.716;8.790;2023-07-22T02:28:20;15.00;;;9.60;;
17251;SDS011;8742;51.716;8.790;2023-07-22T02:30:48;17.43;;;9.57;;
17251;SDS011;8742;51.716;8.790;2023-07-22T02:33:18;18.53;;;8.90;;
17251;SDS011;8742;51.716;8.790;2023-07-22T02:35:47;17.73;;;8.77;;
17251;SDS011;8742;51.716;8.790;2023-07-22T02:38:14;15.87;;;8.37;;
17251;SDS011;8742;51.716;8.790;2023-07-22T02:40:41;19.20;;;8.63;;
17251;SDS011;8742;51.716;8.790;2023-07-22T02:43:07;17.33;;;8.27;;
17251;SDS011;8742;51.716;8.790;2023-07-22T02:45:34;18.00;;;9.40;;
17251;SDS011;8742;51.716;8.790;2023-07-22T02:48:02;17.97;;;8.70;;
17251;SDS011;8742;51.716;8.790;2023-07-22T02:50:30;17.63;;;8.77;;
17251;SDS011;8742;51.716;8.790;2023-07-22T02:52:57;17.20;;;8.53;;
17251;SDS011;8742;51.716;8.790;2023-07-22T02:55:24;15.57;;;8.87;;
17251;SDS011;8742;51.716;8.790;2023-07-22T02:57:51;15.13;;;8.40;;
17251;SDS011;8742;51.716;8.790;2023-07-22T03:00:19;16.43;;;8.40;;
17251;SDS011;8742;51.716;8.790;2023-07-22T03:02:48;15.50;;;8.67;;
17251;SDS011;8742;51.716;8.790;2023-07-22T03:05:16;17.93;;;8.67;;
17251;SDS011;8742;51.716;8.790;2023-07-22T03:07:44;16.87;;;8.33;;
17251;SDS011;8742;51.716;8.790;2023-07-22T03:10:11;15.37;;;8.33;;
17251;SDS011;8742;51.716;8.790;2023-07-22T03:12:37;15.13;;;7.93;;
17251;SDS011;8742;51.716;8.790;2023-07-22T03:15:05;15.67;;;8.80;;
17251;SDS011;8742;51.716;8.790;2023-07-22T03:17:33;15.93;;;8.30;;
17251;SDS011;8742;51.716;8.790;2023-07-22T03:20:01;16.00;;;8.30;;
17251;SDS011;8742;51.716;8.790;2023-07-22T03:22:30;15.37;;;8.10;;
17251;SDS011;8742;51.716;8.790;2023-07-22T03:24:58;12.73;;;7.70;;
17251;SDS011;8742;51.716;8.790;2023-07-22T03:27:25;13.67;;;7.83;;
17251;SDS011;8742;51.716;8.790;2023-07-22T03:29:52;16.50;;;7.93;;
17251;SDS011;8742;51.716;8.790;2023-07-22T03:32:19;17.23;;;8.30;;
17251;SDS011;8742;51.716;8.790;2023-07-22T03:34:46;14.07;;;7.80;;
17251;SDS011;8742;51.716;8.790;2023-07-22T03:37:12;12.83;;;7.60;;
17251;SDS011;8742;51.716;8.790;2023-07-22T03:39:39;16.57;;;8.50;;
17251;SDS011;8742;51.716;8.790;2023-07-22T03:42:08;11.93;;;7.27;;
17251;SDS011;8742;51.716;8.790;2023-07-22T03:44:34;18.63;;;8.13;;
17251;SDS011;8742;51.716;8.790;2023-07-22T03:47:02;14.37;;;7.77;;
17251;SDS011;8742;51.716;8.790;2023-07-22T03:49:31;15.00;;;8.43;;
17251;SDS011;8742;51.716;8.790;2023-07-22T03:51:58;14.23;;;8.27;;
17251;SDS011;8742;51.716;8.790;2023-07-22T03:54:24;13.53;;;8.13;;
17251;SDS011;8742;51.716;8.790;2023-07-22T03:56:55;14.90;;;8.07;;
17251;SDS011;8742;51.716;8.790;2023-07-22T03:59:23;17.70;;;8.33;;
17251;SDS011;8742;51.716;8.790;2023-07-22T04:01:50;15.13;;;7.53;;
17251;SDS011;8742;51.716;8.790;2023-07-22T04:04:16;14.90;;;8.43;;
17251;SDS011;8742;51.716;8.790;2023-07-22T04:06:43;11.50;;;8.00;;
17251;SDS011;8742;51.716;8.790;2023-07-22T04:09:10;15.67;;;8.27;;
17251;SDS011;8742;51.716;8.790;2023-07-22T04:11:37;19.43;;;8.97;;
17251;SDS011;8742;51.716;8.790;2023-07-22T04:14:03;17.67;;;9.37;;
17251;SDS011;8742;51.716;8.790;2023-07-22T04:16:32;12.07;;;8.03;;
17251;SDS011;8742;51.716;8.790;2023-07-22T04:18:58;17.23;;;8.50;;
17251;SDS011;8742;51.716;8.790;2023-07-22T04:21:26;14.30;;;8.60;;
17251;SDS011;8742;51.716;8.790;2023-07-22T04:23:53;15.77;;;9.43;;
17251;SDS011;8742;51.716;8.790;2023-07-22T04:26:19;15.73;;;8.93;;
17251;SDS011;8742;51.716;8.790;2023-07-22T04:28:46;15.90;;;8.57;;
17251;SDS011;8742;51.716;8.790;2023-07-22T04:31:13;15.57;;;8.37;;
17251;SDS011;8742;51.716;8.790;2023-07-22T04:33:41;13.50;;;8.27;;
17251;SDS011;8742;51.716;8.790;2023-07-22T04:36:08;16.53;;;8.87;;
17251;SDS011;8742;51.716;8.790;2023-07-22T04:38:35;17.83;;;8.43;;
17251;SDS011;8742;51.716;8.790;2023-07-22T04:41:02;12.53;;;8.53;;
17251;SDS011;8742;51.716;8.790;2023-07-22T04:43:30;14.33;;;8.27;;
17251;SDS011;8742;51.716;8.790;2023-07-22T04:45:57;15.83;;;9.20;;
17251;SDS011;8742;51.716;8.790;2023-07-22T04:48:24;10.90;;;7.77;;
17251;SDS011;8742;51.716;8.790;2023-07-22T04:50:53;11.70;;;8.07;;
17251;SDS011;8742;51.716;8.790;2023-07-22T04:53:20;15.00;;;7.80;;
17251;SDS011;8742;51.716;8.790;2023-07-22T04:55:47;19.27;;;7.63;;
17251;SDS011;8742;51.716;8.790;2023-07-22T04:58:14;13.90;;;7.83;;
17251;SDS011;8742;51.716;8.790;2023-07-22T05:00:41;14.50;;;7.20;;
17251;SDS011;8742;51.716;8.790;2023-07-22T05:03:08;13.80;;;7.73;;
17251;SDS011;8742;51.716;8.790;2023-07-22T05:05:35;12.87;;;7.70;;
17251;SDS011;8742;51.716;8.790;2023-07-22T05:08:04;15.87;;;7.57;;
17251;SDS011;8742;51.716;8.790;2023-07-22T05:10:32;14.93;;;7.37;;
17251;SDS011;8742;51.716;8.790;2023-07-22T05:12:59;9.87;;;7.10;;
17251;SDS011;8742;51.716;8.790;2023-07-22T05:15:26;12.70;;;7.40;;
17251;SDS011;8742;51.716;8.790;2023-07-22T05:17:53;15.07;;;7.83;;
17251;SDS011;8742;51.716;8.790;2023-07-22T05:20:19;13.80;;;8.30;;
17251;SDS011;8742;51.716;8.790;2023-07-22T05:22:47;14.37;;;8.33;;
17251;SDS011;8742;51.716;8.790;2023-07-22T05:25:16;15.70;;;8.93;;
17251;SDS011;8742;51.716;8.790;2023-07-22T05:27:42;13.87;;;8.67;;
17251;SDS011;8742;51.716;8.790;2023-07-22T05:30:09;14.40;;;9.00;;
17251;SDS011;8742;51.716;8.790;2023-07-22T05:32:36;19.37;;;9.57;;
17251;SDS011;8742;51.716;8.790;2023-07-22T05:35:03;14.57;;;9.27;;
17251;SDS011;8742;51.716;8.790;2023-07-22T05:37:31;12.30;;;8.83;;
17251;SDS011;8742;51.716;8.790;2023-07-22T05:39:58;18.53;;;9.93;;
17251;SDS011;8742;51.716;8.790;2023-07-22T05:42:27;15.53;;;9.90;;
17251;SDS011;8742;51.716;8.790;2023-07-22T05:44:55;18.63;;;10.17;;
17251;SDS011;8742;51.716;8.790;2023-07-22T05:47:23;17.27;;;9.67;;
17251;SDS011;8742;51.716;8.790;2023-07-22T05:49:50;21.83;;;10.77;;
17251;SDS011;8742;51.716;8.790;2023-07-22T05:52:17;17.40;;;10.13;;
17251;SDS011;8742;51.716;8.790;2023-07-22T05:54:48;19.13;;;10.87;;
17251;SDS011;8742;51.716;8.790;2023-07-22T05:57:15;22.57;;;11.33;;
17251;SDS011;8742;51.716;8.790;2023-07-22T05:59:43;20.27;;;11.73;;
17251;SDS011;8742;51.716;8.790;2023-07-22T06:02:12;21.10;;;11.97;;
17251;SDS011;8742;51.716;8.790;2023-07-22T06:04:39;22.73;;;12.27;;
17251;SDS011;8742;51.716;8.790;2023-07-22T06:07:06;23.13;;;12.93;;
17251;SDS011;8742;51.716;8.790;2023-07-22T06:09:32;22.37;;;12.70;;
17251;SDS011;8742;51.716;8.790;2023-07-22T06:12:00;17.47;;;11.60;;
17251;SDS011;8742;51.716;8.790;2023-07-22T06:14:27;17.07;;;10.47;;
17251;SDS011;8742;51.716;8.790;2023-07-22T06:16:55;20.30;;;11.77;;
17251;SDS011;8742;51.716;8.790;2023-07-22T06:19:21;21.37;;;10.23;;
17251;SDS011;8742;51.716;8.790;2023-07-22T06:21:48;17.80;;;10.70;;
17251;SDS011;8742;51.716;8.790;2023-07-22T06:24:15;16.33;;;10.70;;
17251;SDS011;8742;51.716;8.790;2023-07-22T06:26:42;16.97;;;10.80;;
17251;SDS011;8742;51.716;8.790;2023-07-22T06:29:09;20.00;;;11.10;;
17251;SDS011;8742;51.716;8.790;2023-07-22T06:31:35;18.97;;;10.73;;
17251;SDS011;8742;51.716;8.790;2023-07-22T06:34:03;16.97;;;10.70;;
17251;SDS011;8742;51.716;8.790;2023-07-22T06:36:30;20.03;;;10.90;;
17251;SDS011;8742;51.716;8.790;2023-07-22T06:38:57;19.03;;;10.47;;
17251;SDS011;8742;51.716;8.790;2023-07-22T06:41:24;19.37;;;11.37;;
17251;SDS011;8742;51.716;8.790;2023-07-22T06:43:51;16.60;;;11.00;;
17251;SDS011;8742;51.716;8.790;2023-07-22T06:46:17;20.43;;;10.67;;
17251;SDS011;8742;51.716;8.790;2023-07-22T06:48:48;18.47;;;11.00;;
17251;SDS011;8742;51.716;8.790;2023-07-22T06:51:16;17.73;;;10.00;;
17251;SDS011;8742;51.716;8.790;2023-07-22T06:53:43;18.03;;;10.40;;
17251;SDS011;8742;51.716;8.790;2023-07-22T06:56:13;15.23;;;9.37;;
17251;SDS011;8742;51.716;8.790;2023-07-22T06:58:40;17.53;;;10.40;;
17251;SDS011;8742;51.716;8.790;2023-07-22T07:01:06;16.20;;;9.80;;
17251;SDS011;8742;51.716;8.790;2023-07-22T07:03:33;15.43;;;10.17;;
17251;SDS011;8742;51.716;8.790;2023-07-22T07:06:00;18.23;;;10.43;;
17251;SDS011;8742;51.716;8.790;2023-07-22T07:08:29;17.17;;;9.80;;
17251;SDS011;8742;51.716;8.790;2023-07-22T07:10:55;15.47;;;9.37;;
17251;SDS011;8742;51.716;8.790;2023-07-22T07:13:25;15.63;;;10.03;;
17251;SDS011;8742;51.716;8.790;2023-07-22T07:15:51;16.73;;;9.90;;
17251;SDS011;8742;51.716;8.790;2023-07-22T07:18:18;17.27;;;10.13;;
17251;SDS011;8742;51.716;8.790;2023-07-22T07:20:45;18.07;;;10.03;;
17251;SDS011;8742;51.716;8.790;2023-07-22T07:23:12;13.27;;;9.07;;
17251;SDS011;8742;51.716;8.790;2023-07-22T07:25:42;14.53;;;9.57;;
17251;SDS011;8742;51.716;8.790;2023-07-22T07:28:09;15.00;;;9.47;;
17251;SDS011;8742;51.716;8.790;2023-07-22T07:30:38;14.27;;;9.43;;
17251;SDS011;8742;51.716;8.790;2023-07-22T07:33:05;13.37;;;9.63;;
17251;SDS011;8742;51.716;8.790;2023-07-22T07:35:31;11.20;;;8.97;;
17251;SDS011;8742;51.716;8.790;2023-07-22T07:37:58;14.70;;;9.03;;
17251;SDS011;8742;51.716;8.790;2023-07-22T07:40:25;15.73;;;10.77;;
17251;SDS011;8742;51.716;8.790;2023-07-22T07:42:56;17.90;;;9.57;;
17251;SDS011;8742;51.716;8.790;2023-07-22T07:45:23;12.50;;;9.17;;
17251;SDS011;8742;51.716;8.790;2023-07-22T07:47:50;16.87;;;9.87;;
17251;SDS011;8742;51.716;8.790;2023-07-22T07:50:17;12.33;;;8.10;;
17251;SDS011;8742;51.716;8.790;2023-07-22T07:52:44;18.80;;;9.37;;
17251;SDS011;8742;51.716;8.790;2023-07-22T07:55:11;13.40;;;8.93;;
17251;SDS011;8742;51.716;8.790;2023-07-22T07:57:37;14.90;;;9.10;;
17251;SDS011;8742;51.716;8.790;2023-07-22T08:00:06;14.83;;;8.93;;
17251;SDS011;8742;51.716;8.790;2023-07-22T08:02:34;14.63;;;9.17;;
17251;SDS011;8742;51.716;8.790;2023-07-22T08:05:01;16.97;;;9.60;;
17251;SDS011;8742;51.716;8.790;2023-07-22T08:07:28;16.50;;;8.73;;
17251;SDS011;8742;51.716;8.790;2023-07-22T08:09:55;12.73;;;9.10;;
17251;SDS011;8742;51.716;8.790;2023-07-22T08:12:23;13.53;;;8.63;;
17251;SDS011;8742;51.716;8.790;2023-07-22T08:14:50;17.23;;;9.70;;
17251;SDS011;8742;51.716;8.790;2023-07-22T08:17:20;15.77;;;9.27;;
17251;SDS011;8742;51.716;8.790;2023-07-22T08:19:46;13.90;;;8.40;;
17251;SDS011;8742;51.716;8.790;2023-07-22T08:22:14;13.60;;;9.00;;
17251;SDS011;8742;51.716;8.790;2023-07-22T08:24:41;12.03;;;9.03;;
17251;SDS011;8742;51.716;8.790;2023-07-22T08:27:08;12.97;;;9.43;;
17251;SDS011;8742;51.716;8.790;2023-07-22T08:29:37;14.90;;;9.00;;
17251;SDS011;8742;51.716;8.790;2023-07-22T08:32:04;12.23;;;9.00;;
17251;SDS011;8742;51.716;8.790;2023-07-22T08:34:32;14.33;;;8.30;;
17251;SDS011;8742;51.716;8.790;2023-07-22T08:36:59;11.87;;;7.73;;
17251;SDS011;8742;51.716;8.790;2023-07-22T08:39:26;14.07;;;7.87;;
17251;SDS011;8742;51.716;8.790;2023-07-22T08:41:53;11.70;;;8.30;;
17251;SDS011;8742;51.716;8.790;2023-07-22T08:44:22;10.57;;;8.03;;
17251;SDS011;8742;51.716;8.790;2023-07-22T08:46:55;9.97;;;7.43;;
17251;SDS011;8742;51.716;8.790;2023-07-22T08:49:25;10.90;;;7.93;;
17251;SDS011;8742;51.716;8.790;2023-07-22T08:51:54;15.10;;;8.07;;
17251;SDS011;8742;51.716;8.790;2023-07-22T08:54:25;12.67;;;7.33;;
17251;SDS011;8742;51.716;8.790;2023-07-22T08:56:52;10.17;;;7.17;;
17251;SDS011;8742;51.716;8.790;2023-07-22T08:59:20;12.70;;;7.77;;
17251;SDS011;8742;51.716;8.790;2023-07-22T09:01:47;11.60;;;7.57;;
17251;SDS011;8742;51.716;8.790;2023-07-22T09:04:16;9.83;;;7.57;;
17251;SDS011;8742;51.716;8.790;2023-07-22T09:06:44;14.07;;;7.57;;
17251;SDS011;8742;51.716;8.790;2023-07-22T09:09:13;11.23;;;7.70;;
17251;SDS011;8742;51.716;8.790;2023-07-22T09:11:40;10.37;;;8.13;;
17251;SDS011;8742;51.716;8.790;2023-07-22T09:14:08;13.10;;;7.30;;
17251;SDS011;8742;51.716;8.790;2023-07-22T09:16:35;11.02;;;7.60;;
17251;SDS011;8742;51.716;8.790;2023-07-22T09:19:03;11.90;;;7.80;;
17251;SDS011;8742;51.716;8.790;2023-07-22T09:21:31;11.07;;;7.43;;
17251;SDS011;8742;51.716;8.790;2023-07-22T09:24:00;8.82;;;6.97;;
17251;SDS011;8742;51.716;8.790;2023-07-22T09:26:30;10.90;;;7.63;;
17251;SDS011;8742;51.716;8.790;2023-07-22T09:28:59;10.05;;;7.72;;
17251;SDS011;8742;51.716;8.790;2023-07-22T09:31:26;12.02;;;7.15;;
17251;SDS011;8742;51.716;8.790;2023-07-22T09:33:53;14.15;;;7.65;;
17251;SDS011;8742;51.716;8.790;2023-07-22T09:36:20;13.60;;;7.25;;
17251;SDS011;8742;51.716;8.790;2023-07-22T09:38:58;13.40;;;7.25;;
17251;SDS011;8742;51.716;8.790;2023-07-22T09:41:29;10.18;;;6.65;;
17251;SDS011;8742;51.716;8.790;2023-07-22T09:43:56;15.02;;;7.53;;
17251;SDS011;8742;51.716;8.790;2023-07-22T09:46:23;14.35;;;7.43;;
17251;SDS011;8742;51.716;8.790;2023-07-22T09:48:59;7.65;;;6.85;;
17251;SDS011;8742;51.716;8.790;2023-07-22T09:51:32;11.88;;;7.32;;
17251;SDS011;8742;51.716;8.790;2023-07-22T09:54:01;9.70;;;6.82;;
17251;SDS011;8742;51.716;8.790;2023-07-22T09:56:30;11.70;;;7.15;;
17251;SDS011;8742;51.716;8.790;2023-07-22T09:58:58;10.02;;;6.60;;
17251;SDS011;8742;51.716;8.790;2023-07-22T10:01:25;10.38;;;7.10;;
17251;SDS011;8742;51.716;8.790;2023-07-22T10:03:52;9.35;;;6.68;;
17251;SDS011;8742;51.716;8.790;2023-07-22T10:06:21;8.20;;;6.57;;
17251;SDS011;8742;51.716;8.790;2023-07-22T10:08:50;12.30;;;6.82;;
17251;SDS011;8742;51.716;8.790;2023-07-22T10:11:17;8.68;;;6.50;;
17251;SDS011;8742;51.716;8.790;2023-07-22T10:13:46;11.48;;;7.10;;
17251;SDS011;8742;51.716;8.790;2023-07-22T10:16:13;9.40;;;6.65;;
17251;SDS011;8742;51.716;8.790;2023-07-22T10:18:42;13.98;;;6.63;;
17251;SDS011;8742;51.716;8.790;2023-07-22T10:21:10;11.07;;;6.30;;
17251;SDS011;8742;51.716;8.790;2023-07-22T10:23:37;10.57;;;7.18;;
17251;SDS011;8742;51.716;8.790;2023-07-22T10:26:05;10.13;;;7.18;;
17251;SDS011;8742;51.716;8.790;2023-07-22T10:28:32;12.85;;;6.75;;
17251;SDS011;8742;51.716;8.790;2023-07-22T10:31:00;9.57;;;6.65;;
17251;SDS011;8742;51.716;8.790;2023-07-22T10:33:28;7.38;;;5.85;;
17251;SDS011;8742;51.716;8.790;2023-07-22T10:36:01;7.78;;;5.68;;
17251;SDS011;8742;51.716;8.790;2023-07-22T10:38:30;10.95;;;5.93;;
17251;SDS011;8742;51.716;8.790;2023-07-22T10:40:58;9.82;;;6.03;;
17251;SDS011;8742;51.716;8.790;2023-07-22T10:43:25;8.32;;;5.93;;
17251;SDS011;8742;51.716;8.790;2023-07-22T10:45:59;7.53;;;5.85;;
17251;SDS011;8742;51.716;8.790;2023-07-22T10:48:34;9.82;;;6.07;;
17251;SDS011;8742;51.716;8.790;2023-07-22T10:51:04;8.95;;;5.30;;
17251;SDS011;8742;51.716;8.790;2023-07-22T10:53:32;8.90;;;5.28;;
17251;SDS011;8742;51.716;8.790;2023-07-22T10:56:04;7.55;;;5.82;;
17251;SDS011;8742;51.716;8.790;2023-07-22T10:58:33;10.02;;;5.70;;
17251;SDS011;8742;51.716;8.790;2023-07-22T11:01:23;6.80;;;5.38;;
17251;SDS011;8742;51.716;8.790;2023-07-22T11:04:06;5.15;;;4.55;;
17251;SDS011;8742;51.716;8.790;2023-07-22T11:06:35;6.03;;;4.75;;
17251;SDS011;8742;51.716;8.790;2023-07-22T11:09:03;6.53;;;4.43;;
17251;SDS011;8742;51.716;8.790;2023-07-22T11:11:36;8.10;;;4.80;;
17251;SDS011;8742;51.716;8.790;2023-07-22T11:14:14;6.10;;;4.50;;
17251;SDS011;8742;51.716;8.790;2023-07-22T11:16:44;7.20;;;4.72;;
17251;SDS011;8742;51.716;8.790;2023-07-22T11:19:12;5.53;;;4.63;;
17251;SDS011;8742;51.716;8.790;2023-07-22T11:21:40;6.97;;;5.05;;
17251;SDS011;8742;51.716;8.790;2023-07-22T11:24:07;6.15;;;4.57;;
17251;SDS011;8742;51.716;8.790;2023-07-22T11:26:34;6.35;;;4.60;;
17251;SDS011;8742;51.716;8.790;2023-07-22T11:31:32;7.22;;;4.53;;
17251;SDS011;8742;51.716;8.790;2023-07-22T11:34:03;6.18;;;4.50;;
17251;SDS011;8742;51.716;8.790;2023-07-22T11:36:30;6.28;;;4.68;;
17251;SDS011;8742;51.716;8.790;2023-07-22T11:39:01;5.05;;;4.20;;
17251;SDS011;8742;51.716;8.790;2023-07-22T11:41:29;5.00;;;4.38;;
17251;SDS011;8742;51.716;8.790;2023-07-22T11:43:56;5.90;;;4.38;;
17251;SDS011;8742;51.716;8.790;2023-07-22T11:46:24;7.85;;;4.10;;
17251;SDS011;8742;51.716;8.790;2023-07-22T11:48:53;5.55;;;4.10;;
17251;SDS011;8742;51.716;8.790;2023-07-22T11:51:23;6.15;;;4.03;;
17251;SDS011;8742;51.716;8.790;2023-07-22T11:53:51;6.95;;;4.53;;
17251;SDS011;8742;51.716;8.790;2023-07-22T11:56:20;5.65;;;4.30;;
17251;SDS011;8742;51.716;8.790;2023-07-22T11:58:51;4.90;;;4.40;;
17251;SDS011;8742;51.716;8.790;2023-07-22T12:01:21;5.00;;;4.07;;
17251;SDS011;8742;51.716;8.790;2023-07-22T12:03:48;6.43;;;4.05;;
17251;SDS011;8742;51.716;8.790;2023-07-22T12:06:24;6.75;;;4.50;;
17251;SDS011;8742;51.716;8.790;2023-07-22T12:08:51;5.20;;;4.40;;
17251;SDS011;8742;51.716;8.790;2023-07-22T12:11:19;5.70;;;3.75;;
17251;SDS011;8742;51.716;8.790;2023-07-22T12:13:47;7.97;;;4.45;;
17251;SDS011;8742;51.716;8.790;2023-07-22T12:16:22;8.45;;;4.30;;
17251;SDS011;8742;51.716;8.790;2023-07-22T12:18:49;5.95;;;4.15;;
17251;SDS011;8742;51.716;8.790;2023-07-22T12:21:20;6.35;;;4.72;;
17251;SDS011;8742;51.716;8.790;2023-07-22T12:23:48;9.23;;;4.80;;
17251;SDS011;8742;51.716;8.790;2023-07-22T12:26:15;7.25;;;4.47;;
17251;SDS011;8742;51.716;8.790;2023-07-22T12:28:42;7.10;;;4.82;;
17251;SDS011;8742;51.716;8.790;2023-07-22T12:31:08;5.65;;;4.75;;
17251;SDS011;8742;51.716;8.790;2023-07-22T12:33:35;5.72;;;4.22;;
17251;SDS011;8742;51.716;8.790;2023-07-22T12:36:02;4.95;;;4.18;;
17251;SDS011;8742;51.716;8.790;2023-07-22T12:38:30;6.65;;;4.35;;
17251;SDS011;8742;51.716;8.790;2023-07-22T12:40:58;6.68;;;3.97;;
17251;SDS011;8742;51.716;8.790;2023-07-22T12:43:25;6.78;;;4.57;;
17251;SDS011;8742;51.716;8.790;2023-07-22T12:45:51;5.07;;;4.00;;
17251;SDS011;8742;51.716;8.790;2023-07-22T12:48:18;5.32;;;4.45;;
17251;SDS011;8742;51.716;8.790;2023-07-22T12:50:45;7.05;;;4.57;;
17251;SDS011;8742;51.716;8.790;2023-07-22T12:53:13;5.63;;;4.18;;
17251;SDS011;8742;51.716;8.790;2023-07-22T12:55:40;6.03;;;4.25;;
17251;SDS011;8742;51.716;8.790;2023-07-22T12:58:08;6.82;;;4.50;;
17251;SDS011;8742;51.716;8.790;2023-07-22T13:00:35;4.18;;;3.78;;
17251;SDS011;8742;51.716;8.790;2023-07-22T13:03:02;4.95;;;3.88;;
17251;SDS011;8742;51.716;8.790;2023-07-22T13:05:29;6.63;;;4.25;;
17251;SDS011;8742;51.716;8.790;2023-07-22T13:07:56;6.55;;;4.25;;
17251;SDS011;8742;51.716;8.790;2023-07-22T13:10:26;7.45;;;4.82;;
17251;SDS011;8742;51.716;8.790;2023-07-22T13:12:53;11.98;;;4.85;;
17251;SDS011;8742;51.716;8.790;2023-07-22T13:15:22;5.13;;;4.03;;
17251;SDS011;8742;51.716;8.790;2023-07-22T13:17:48;5.53;;;3.97;;
17251;SDS011;8742;51.716;8.790;2023-07-22T13:20:15;4.57;;;4.18;;
17251;SDS011;8742;51.716;8.790;2023-07-22T13:22:42;7.28;;;3.95;;
17251;SDS011;8742;51.716;8.790;2023-07-22T13:25:09;4.53;;;4.13;;
17251;SDS011;8742;51.716;8.790;2023-07-22T13:27:36;5.32;;;3.90;;
17251;SDS011;8742;51.716;8.790;2023-07-22T13:30:06;4.15;;;3.75;;
17251;SDS011;8742;51.716;8.790;2023-07-22T13:32:34;6.18;;;3.90;;
17251;SDS011;8742;51.716;8.790;2023-07-22T13:35:01;8.10;;;3.83;;
17251;SDS011;8742;51.716;8.790;2023-07-22T13:37:29;4.47;;;3.45;;
17251;SDS011;8742;51.716;8.790;2023-07-22T13:39:55;4.32;;;3.85;;
17251;SDS011;8742;51.716;8.790;2023-07-22T13:42:23;4.80;;;4.25;;
17251;SDS011;8742;51.716;8.790;2023-07-22T13:44:50;4.43;;;3.78;;
17251;SDS011;8742;51.716;8.790;2023-07-22T13:47:17;4.50;;;3.60;;
17251;SDS011;8742;51.716;8.790;2023-07-22T13:49:45;5.63;;;3.72;;
17251;SDS011;8742;51.716;8.790;2023-07-22T13:52:12;5.05;;;3.70;;
17251;SDS011;8742;51.716;8.790;2023-07-22T13:54:39;5.32;;;3.55;;
17251;SDS011;8742;51.716;8.790;2023-07-22T13:57:06;5.32;;;3.97;;
17251;SDS011;8742;51.716;8.790;2023-07-22T13:59:33;4.18;;;3.45;;
17251;SDS011;8742;51.716;8.790;2023-07-22T14:02:00;4.20;;;3.20;;
17251;SDS011;8742;51.716;8.790;2023-07-22T14:04:27;3.67;;;3.33;;
17251;SDS011;8742;51.716;8.790;2023-07-22T14:06:55;5.90;;;3.88;;
17251;SDS011;8742;51.716;8.790;2023-07-22T14:09:22;3.88;;;3.40;;
17251;SDS011;8742;51.716;8.790;2023-07-22T14:11:48;4.55;;;3.20;;
17251;SDS011;8742;51.716;8.790;2023-07-22T14:14:15;4.70;;;3.35;;
17251;SDS011;8742;51.716;8.790;2023-07-22T14:16:42;5.32;;;3.30;;
17251;SDS011;8742;51.716;8.790;2023-07-22T14:19:09;3.58;;;2.72;;
17251;SDS011;8742;51.716;8.790;2023-07-22T14:21:36;2.90;;;2.70;;
17251;SDS011;8742;51.716;8.790;2023-07-22T14:24:04;4.95;;;2.72;;
17251;SDS011;8742;51.716;8.790;2023-07-22T14:26:32;4.55;;;3.20;;
17251;SDS011;8742;51.716;8.790;2023-07-22T14:28:59;4.93;;;3.30;;
17251;SDS011;8742;51.716;8.790;2023-07-22T14:31:26;2.75;;;2.53;;
17251;SDS011;8742;51.716;8.790;2023-07-22T14:33:53;3.10;;;2.80;;
17251;SDS011;8742;51.716;8.790;2023-07-22T14:36:19;3.15;;;2.90;;
17251;SDS011;8742;51.716;8.790;2023-07-22T14:38:47;3.45;;;2.97;;
17251;SDS011;8742;51.716;8.790;2023-07-22T14:41:15;4.68;;;3.00;;
17251;SDS011;8742;51.716;8.790;2023-07-22T14:43:42;3.00;;;2.78;;
17251;SDS011;8742;51.716;8.790;2023-07-22T14:46:09;3.17;;;2.88;;
17251;SDS011;8742;51.716;8.790;2023-07-22T14:48:35;4.90;;;2.65;;
17251;SDS011;8742;51.716;8.790;2023-07-22T14:51:02;5.05;;;2.90;;
17251;SDS011;8742;51.716;8.790;2023-07-22T14:53:29;4.53;;;2.78;;
17251;SDS011;8742;51.716;8.790;2023-07-22T14:55:56;5.40;;;3.38;;